sensor_id;sensor_type;location;lat;lon;timestamp;pressure;altitude;pressure_sealevel;temperature;humidity
41515;BME280;27247;48.020;16.720;2023-05-21T00:00:31;100002.44;;;14.41;100.00
41515;BME280;27247;48.020;16.720;2023-05-21T00:04:45;100006.63;;;14.44;100.00
41515;BME280;27247;48.020;16.720;2023-05-21T00:08:55;100010.66;;;14.33;100.00
41515;BME280;27247;48.020;16.720;2023-05-21T00:13:05;100009.69;;;14.41;100.00
41515;BME280;27247;48.020;16.720;2023-05-21T00:17:18;99999.50;;;14.36;100.00
41515;BME280;27247;48.020;16.720;2023-05-21T00:21:28;99999.41;;;14.23;100.00
41515;BME280;27247;48.020;16.720;2023-05-21T00:25:38;99990.75;;;13.99;100.00
41515;BME280;27247;48.020;16.720;2023-05-21T00:29:49;100005.94;;;13.86;100.00
41515;BME280;27247;48.020;16.720;2023-05-21T00:33:59;100005.47;;;13.82;100.00
41515;BME280;27247;48.020;16.720;2023-05-21T00:38:09;100004.97;;;13.72;100.00
41515;BME280;27247;48.020;16.720;2023-05-21T00:42:20;100011.31;;;13.50;100.00
41515;BME280;27247;48.020;16.720;2023-05-21T00:46:30;99999.31;;;13.46;100.00
41515;BME280;27247;48.020;16.720;2023-05-21T00:50:41;99992.53;;;13.50;100.00
41515;BME280;27247;48.020;16.720;2023-05-21T00:54:52;99993.16;;;13.52;100.00
41515;BME280;27247;48.020;16.720;2023-05-21T00:59:02;99992.06;;;13.46;100.00
41515;BME280;27247;48.020;16.720;2023-05-21T01:03:14;99994.00;;;13.52;100.00
41515;BME280;27247;48.020;16.720;2023-05-21T01:07:25;99988.38;;;13.47;100.00
41515;BME280;27247;48.020;16.720;2023-05-21T01:11:41;99990.31;;;13.53;100.00
41515;BME280;27247;48.020;16.720;2023-05-21T01:15:53;99986.22;;;13.57;100.00
41515;BME280;27247;48.020;16.720;2023-05-21T01:20:04;99974.13;;;13.47;100.00
41515;BME280;27247;48.020;16.720;2023-05-21T01:24:26;99979.41;;;13.40;100.00
41515;BME280;27247;48.020;16.720;2023-05-21T01:28:37;99972.06;;;13.27;100.00
41515;BME280;27247;48.020;16.720;2023-05-21T01:33:12;99978.00;;;13.23;100.00
41515;BME280;27247;48.020;16.720;2023-05-21T01:37:36;99973.59;;;13.36;100.00
41515;BME280;27247;48.020;16.720;2023-05-21T01:41:52;99967.41;;;13.36;100.00
41515;BME280;27247;48.020;16.720;2023-05-21T01:46:04;99969.63;;;13.32;100.00
41515;BME280;27247;48.020;16.720;2023-05-21T01:50:16;99967.78;;;13.33;100.00
41515;BME280;27247;48.020;16.720;2023-05-21T01:54:27;99983.63;;;13.13;100.00
41515;BME280;27247;48.020;16.720;2023-05-21T01:58:38;99974.13;;;12.96;100.00
41515;BME280;27247;48.020;16.720;2023-05-21T02:02:48;99970.63;;;12.95;100.00
41515;BME280;27247;48.020;16.720;2023-05-21T02:06:59;99976.09;;;12.87;100.00
41515;BME280;27247;48.020;16.720;2023-05-21T02:15:42;99960.94;;;12.79;100.00
41515;BME280;27247;48.020;16.720;2023-05-21T02:19:53;99956.63;;;13.00;100.00
41515;BME280;27247;48.020;16.720;2023-05-21T02:24:04;99966.81;;;13.04;100.00
41515;BME280;27247;48.020;16.720;2023-05-21T02:28:14;99966.25;;;13.09;100.00
41515;BME280;27247;48.020;16.720;2023-05-21T02:32:25;99959.59;;;13.05;100.00
41515;BME280;27247;48.020;16.720;2023-05-21T02:36:35;99948.31;;;12.95;100.00
41515;BME280;27247;48.020;16.720;2023-05-21T02:40:46;99962.38;;;12.97;100.00
41515;BME280;27247;48.020;16.720;2023-05-21T02:44:56;99953.88;;;12.93;100.00
41515;BME280;27247;48.020;16.720;2023-05-21T02:49:06;99950.66;;;12.83;100.00
41515;BME280;27247;48.020;16.720;2023-05-21T02:53:17;99952.88;;;12.94;100.00
41515;BME280;27247;48.020;16.720;2023-05-21T02:57:27;99954.00;;;12.85;100.00
41515;BME280;27247;48.020;16.720;2023-05-21T03:01:37;99958.78;;;12.90;100.00
41515;BME280;27247;48.020;16.720;2023-05-21T03:05:50;99954.91;;;12.77;100.00
41515;BME280;27247;48.020;16.720;2023-05-21T03:10:00;99958.25;;;12.79;100.00
41515;BME280;27247;48.020;16.720;2023-05-21T03:14:10;99957.97;;;12.74;100.00
41515;BME280;27247;48.020;16.720;2023-05-21T03:18:21;99960.00;;;12.72;100.00
41515;BME280;27247;48.020;16.720;2023-05-21T03:22:32;99956.31;;;12.73;100.00
41515;BME280;27247;48.020;16.720;2023-05-21T03:26:42;99966.13;;;12.52;100.00
41515;BME280;27247;48.020;16.720;2023-05-21T03:30:52;99965.63;;;12.48;100.00
41515;BME280;27247;48.020;16.720;2023-05-21T03:35:04;99955.78;;;12.49;100.00
41515;BME280;27247;48.020;16.720;2023-05-21T03:39:14;99973.84;;;12.46;100.00
41515;BME280;27247;48.020;16.720;2023-05-21T03:43:25;99963.44;;;12.52;100.00
41515;BME280;27247;48.020;16.720;2023-05-21T03:47:35;99958.00;;;12.60;100.00
41515;BME280;27247;48.020;16.720;2023-05-21T03:51:45;99964.38;;;12.59;100.00
41515;BME280;27247;48.020;16.720;2023-05-21T03:55:56;99967.19;;;12.42;100.00
41515;BME280;27247;48.020;16.720;2023-05-21T04:00:06;99962.81;;;12.50;100.00
41515;BME280;27247;48.020;16.720;2023-05-21T04:04:18;99963.97;;;12.47;100.00
41515;BME280;27247;48.020;16.720;2023-05-21T04:08:28;99963.44;;;12.52;100.00
41515;BME280;27247;48.020;16.720;2023-05-21T04:12:39;99964.19;;;12.60;100.00
41515;BME280;27247;48.020;16.720;2023-05-21T04:16:49;99969.34;;;12.62;100.00
41515;BME280;27247;48.020;16.720;2023-05-21T04:20:59;99966.69;;;12.62;100.00
41515;BME280;27247;48.020;16.720;2023-05-21T04:25:10;99954.38;;;12.67;100.00
41515;BME280;27247;48.020;16.720;2023-05-21T04:29:21;99974.16;;;12.81;100.00
41515;BME280;27247;48.020;16.720;2023-05-21T04:33:31;99969.34;;;12.91;100.00
41515;BME280;27247;48.020;16.720;2023-05-21T04:37:42;99967.09;;;12.95;100.00
41515;BME280;27247;48.020;16.720;2023-05-21T04:41:54;99956.19;;;12.96;100.00
41515;BME280;27247;48.020;16.720;2023-05-21T04:46:05;99975.78;;;12.97;100.00
41515;BME280;27247;48.020;16.720;2023-05-21T04:50:15;99982.38;;;12.94;100.00
41515;BME280;27247;48.020;16.720;2023-05-21T04:54:27;99982.19;;;12.96;100.00
41515;BME280;27247;48.020;16.720;2023-05-21T04:58:37;99989.47;;;13.02;100.00
41515;BME280;27247;48.020;16.720;2023-05-21T05:02:49;99985.66;;;13.11;100.00
41515;BME280;27247;48.020;16.720;2023-05-21T05:06:59;99980.56;;;13.16;100.00
41515;BME280;27247;48.020;16.720;2023-05-21T05:11:10;99987.16;;;13.14;100.00
41515;BME280;27247;48.020;16.720;2023-05-21T05:15:21;99992.16;;;13.17;100.00
41515;BME280;27247;48.020;16.720;2023-05-21T05:19:31;99992.25;;;13.23;100.00
41515;BME280;27247;48.020;16.720;2023-05-21T05:23:41;99989.38;;;13.10;100.00
41515;BME280;27247;48.020;16.720;2023-05-21T05:27:52;99989.25;;;13.33;100.00
41515;BME280;27247;48.020;16.720;2023-05-21T05:32:02;99982.81;;;13.49;100.00
41515;BME280;27247;48.020;16.720;2023-05-21T05:36:13;99990.59;;;13.80;100.00
41515;BME280;27247;48.020;16.720;2023-05-21T05:40:23;99982.94;;;14.04;100.00
41515;BME280;27247;48.020;16.720;2023-05-21T05:44:33;99983.69;;;14.20;100.00
41515;BME280;27247;48.020;16.720;2023-05-21T05:48:44;99993.19;;;14.44;100.00
41515;BME280;27247;48.020;16.720;2023-05-21T05:52:55;99999.56;;;14.64;100.00
41515;BME280;27247;48.020;16.720;2023-05-21T05:57:05;99992.00;;;14.81;100.00
41515;BME280;27247;48.020;16.720;2023-05-21T06:01:15;100000.19;;;15.07;100.00
41515;BME280;27247;48.020;16.720;2023-05-21T06:05:26;99996.53;;;15.28;100.00
41515;BME280;27247;48.020;16.720;2023-05-21T06:09:36;99991.41;;;15.53;100.00
41515;BME280;27247;48.020;16.720;2023-05-21T06:13:47;99984.91;;;15.82;100.00
41515;BME280;27247;48.020;16.720;2023-05-21T06:17:58;99985.72;;;16.09;100.00
41515;BME280;27247;48.020;16.720;2023-05-21T06:22:08;99978.25;;;16.37;100.00
41515;BME280;27247;48.020;16.720;2023-05-21T06:26:18;99987.78;;;16.73;100.00
41515;BME280;27247;48.020;16.720;2023-05-21T06:30:29;99980.81;;;17.03;100.00
41515;BME280;27247;48.020;16.720;2023-05-21T06:34:39;99983.22;;;17.24;100.00
41515;BME280;27247;48.020;16.720;2023-05-21T06:38:50;99985.06;;;17.62;98.77
41515;BME280;27247;48.020;16.720;2023-05-21T06:43:00;99973.22;;;18.01;95.13
41515;BME280;27247;48.020;16.720;2023-05-21T06:47:10;99979.22;;;18.28;93.73
41515;BME280;27247;48.020;16.720;2023-05-21T06:51:21;99980.03;;;18.72;92.46
41515;BME280;27247;48.020;16.720;2023-05-21T06:55:31;99979.91;;;19.03;89.17
41515;BME280;27247;48.020;16.720;2023-05-21T06:59:42;99980.34;;;19.19;87.67
41515;BME280;27247;48.020;16.720;2023-05-21T07:03:52;99964.16;;;19.30;85.42
41515;BME280;27247;48.020;16.720;2023-05-21T07:08:03;99972.78;;;19.39;85.26
41515;BME280;27247;48.020;16.720;2023-05-21T07:12:13;99965.75;;;19.50;84.25
41515;BME280;27247;48.020;16.720;2023-05-21T07:16:24;99976.06;;;19.59;86.51
41515;BME280;27247;48.020;16.720;2023-05-21T07:20:34;99981.06;;;19.74;83.25
41515;BME280;27247;48.020;16.720;2023-05-21T07:24:44;99975.13;;;20.07;83.87
41515;BME280;27247;48.020;16.720;2023-05-21T07:28:55;99978.09;;;20.05;82.08
41515;BME280;27247;48.020;16.720;2023-05-21T07:33:05;99971.84;;;20.05;84.64
41515;BME280;27247;48.020;16.720;2023-05-21T07:37:16;99969.84;;;20.12;82.48
41515;BME280;27247;48.020;16.720;2023-05-21T07:41:26;99972.78;;;20.34;82.37
41515;BME280;27247;48.020;16.720;2023-05-21T07:45:37;99956.75;;;20.32;80.15
41515;BME280;27247;48.020;16.720;2023-05-21T07:49:47;99969.97;;;20.17;81.44
41515;BME280;27247;48.020;16.720;2023-05-21T07:53:58;99960.41;;;20.38;81.95
41515;BME280;27247;48.020;16.720;2023-05-21T07:58:08;99967.63;;;20.44;80.22
41515;BME280;27247;48.020;16.720;2023-05-21T08:02:18;99970.31;;;20.67;79.90
41515;BME280;27247;48.020;16.720;2023-05-21T08:06:29;99976.59;;;20.68;78.18
41515;BME280;27247;48.020;16.720;2023-05-21T08:10:40;99973.09;;;21.08;80.95
41515;BME280;27247;48.020;16.720;2023-05-21T08:14:50;99985.81;;;21.19;80.59
41515;BME280;27247;48.020;16.720;2023-05-21T08:19:01;99986.53;;;21.54;80.65
41515;BME280;27247;48.020;16.720;2023-05-21T08:23:11;99983.66;;;21.89;74.01
41515;BME280;27247;48.020;16.720;2023-05-21T08:27:21;99983.94;;;22.21;73.66
41515;BME280;27247;48.020;16.720;2023-05-21T08:31:32;99975.75;;;22.55;72.71
41515;BME280;27247;48.020;16.720;2023-05-21T08:35:42;99971.41;;;22.76;70.11
41515;BME280;27247;48.020;16.720;2023-05-21T08:39:52;99970.72;;;23.02;68.84
41515;BME280;27247;48.020;16.720;2023-05-21T08:44:06;99962.50;;;23.24;70.26
41515;BME280;27247;48.020;16.720;2023-05-21T08:48:21;99949.59;;;23.14;68.88
41515;BME280;27247;48.020;16.720;2023-05-21T08:52:33;99962.72;;;23.44;71.06
41515;BME280;27247;48.020;16.720;2023-05-21T08:56:43;99951.38;;;23.79;64.81
41515;BME280;27247;48.020;16.720;2023-05-21T09:00:58;99951.19;;;23.37;64.97
41515;BME280;27247;48.020;16.720;2023-05-21T09:05:09;99956.25;;;23.50;69.44
41515;BME280;27247;48.020;16.720;2023-05-21T09:09:27;99957.00;;;23.68;67.23
41515;BME280;27247;48.020;16.720;2023-05-21T09:13:42;99960.22;;;23.65;64.73
41515;BME280;27247;48.020;16.720;2023-05-21T09:17:54;99955.00;;;23.90;66.59
41515;BME280;27247;48.020;16.720;2023-05-21T09:22:04;99954.28;;;24.32;64.92
41515;BME280;27247;48.020;16.720;2023-05-21T09:26:15;99942.44;;;24.63;64.04
41515;BME280;27247;48.020;16.720;2023-05-21T09:30:26;99947.44;;;24.76;63.12
41515;BME280;27247;48.020;16.720;2023-05-21T09:34:36;99948.25;;;24.77;64.01
41515;BME280;27247;48.020;16.720;2023-05-21T09:38:47;99948.44;;;25.02;63.16
41515;BME280;27247;48.020;16.720;2023-05-21T09:42:58;99943.97;;;24.96;60.60
41515;BME280;27247;48.020;16.720;2023-05-21T09:47:08;99938.94;;;25.25;61.40
41515;BME280;27247;48.020;16.720;2023-05-21T09:51:19;99936.78;;;25.48;61.61
41515;BME280;27247;48.020;16.720;2023-05-21T09:55:30;99929.44;;;25.68;61.24
41515;BME280;27247;48.020;16.720;2023-05-21T09:59:41;99934.06;;;25.58;62.99
41515;BME280;27247;48.020;16.720;2023-05-21T10:03:56;99928.91;;;25.71;62.34
41515;BME280;27247;48.020;16.720;2023-05-21T10:08:08;99926.44;;;25.80;60.38
41515;BME280;27247;48.020;16.720;2023-05-21T10:12:20;99929.44;;;25.94;60.45
41515;BME280;27247;48.020;16.720;2023-05-21T10:16:32;99917.44;;;26.05;59.14
41515;BME280;27247;48.020;16.720;2023-05-21T10:20:43;99919.84;;;26.27;59.18
41515;BME280;27247;48.020;16.720;2023-05-21T10:24:55;99913.28;;;26.18;60.71
41515;BME280;27247;48.020;16.720;2023-05-21T10:29:06;99923.44;;;26.22;59.65
41515;BME280;27247;48.020;16.720;2023-05-21T10:33:19;99914.13;;;25.72;57.64
41515;BME280;27247;48.020;16.720;2023-05-21T10:37:30;99906.72;;;26.14;58.83
41515;BME280;27247;48.020;16.720;2023-05-21T10:42:11;99910.47;;;26.58;60.67
41515;BME280;27247;48.020;16.720;2023-05-21T10:55:37;99909.00;;;26.86;55.79
41515;BME280;27247;48.020;16.720;2023-05-21T10:59:52;99897.97;;;27.01;54.42
41515;BME280;27247;48.020;16.720;2023-05-21T11:04:03;99903.16;;;27.13;55.83
41515;BME280;27247;48.020;16.720;2023-05-21T11:08:30;99900.97;;;27.15;57.69
41515;BME280;27247;48.020;16.720;2023-05-21T11:13:15;99898.53;;;27.09;56.27
41515;BME280;27247;48.020;16.720;2023-05-21T11:17:37;99901.47;;;27.22;57.46
41515;BME280;27247;48.020;16.720;2023-05-21T11:21:51;99893.97;;;26.73;54.69
41515;BME280;27247;48.020;16.720;2023-05-21T11:26:05;99898.44;;;26.54;57.29
41515;BME280;27247;48.020;16.720;2023-05-21T11:30:17;99901.22;;;26.44;56.61
41515;BME280;27247;48.020;16.720;2023-05-21T11:34:47;99896.97;;;26.77;56.23
41515;BME280;27247;48.020;16.720;2023-05-21T11:39:10;99898.81;;;26.92;58.40
41515;BME280;27247;48.020;16.720;2023-05-21T11:43:22;99891.63;;;26.36;56.81
41515;BME280;27247;48.020;16.720;2023-05-21T11:47:32;99890.44;;;26.63;55.87
41515;BME280;27247;48.020;16.720;2023-05-21T11:51:43;99889.50;;;26.98;60.58
41515;BME280;27247;48.020;16.720;2023-05-21T11:55:53;99884.00;;;27.08;57.01
41515;BME280;27247;48.020;16.720;2023-05-21T12:00:12;99878.59;;;27.37;55.49
41515;BME280;27247;48.020;16.720;2023-05-21T12:04:28;99866.72;;;27.81;54.36
41515;BME280;27247;48.020;16.720;2023-05-21T12:08:38;99863.66;;;27.87;57.13
41515;BME280;27247;48.020;16.720;2023-05-21T12:12:49;99868.47;;;26.73;55.00
41515;BME280;27247;48.020;16.720;2023-05-21T12:16:59;99859.19;;;26.64;59.16
41515;BME280;27247;48.020;16.720;2023-05-21T12:21:10;99864.69;;;26.64;58.86
41515;BME280;27247;48.020;16.720;2023-05-21T12:25:21;99852.25;;;26.82;56.35
41515;BME280;27247;48.020;16.720;2023-05-21T12:29:32;99858.97;;;26.55;56.07
41515;BME280;27247;48.020;16.720;2023-05-21T12:33:49;99863.69;;;27.09;53.99
41515;BME280;27247;48.020;16.720;2023-05-21T12:38:00;99859.09;;;27.73;57.17
41515;BME280;27247;48.020;16.720;2023-05-21T12:42:12;99845.03;;;27.06;54.78
41515;BME280;27247;48.020;16.720;2023-05-21T12:46:23;99838.72;;;26.46;58.33
41515;BME280;27247;48.020;16.720;2023-05-21T12:50:38;99835.75;;;26.22;58.25
41515;BME280;27247;48.020;16.720;2023-05-21T12:54:50;99841.75;;;26.99;56.27
41515;BME280;27247;48.020;16.720;2023-05-21T12:59:01;99831.63;;;27.39;55.95
41515;BME280;27247;48.020;16.720;2023-05-21T13:03:11;99832.53;;;26.80;55.58
41515;BME280;27247;48.020;16.720;2023-05-21T13:07:24;99813.75;;;27.02;55.62
41515;BME280;27247;48.020;16.720;2023-05-21T13:11:35;99817.38;;;26.33;57.51
41515;BME280;27247;48.020;16.720;2023-05-21T13:15:45;99815.19;;;26.35;59.29
41515;BME280;27247;48.020;16.720;2023-05-21T13:20:10;99810.53;;;26.35;56.48
41515;BME280;27247;48.020;16.720;2023-05-21T13:24:29;99809.44;;;26.86;56.76
41515;BME280;27247;48.020;16.720;2023-05-21T13:28:39;99800.81;;;27.13;55.06
41515;BME280;27247;48.020;16.720;2023-05-21T13:32:50;99798.13;;;27.99;55.72
41515;BME280;27247;48.020;16.720;2023-05-21T13:37:01;99792.78;;;28.13;53.00
41515;BME280;27247;48.020;16.720;2023-05-21T13:41:11;99798.56;;;28.78;50.26
41515;BME280;27247;48.020;16.720;2023-05-21T13:45:21;99791.13;;;28.79;52.71
41515;BME280;27247;48.020;16.720;2023-05-21T13:49:38;99781.72;;;29.04;51.42
41515;BME280;27247;48.020;16.720;2023-05-21T13:53:48;99780.56;;;27.72;53.78
41515;BME280;27247;48.020;16.720;2023-05-21T13:57:59;99782.03;;;27.30;53.24
41515;BME280;27247;48.020;16.720;2023-05-21T14:02:09;99779.09;;;27.50;57.03
41515;BME280;27247;48.020;16.720;2023-05-21T14:06:20;99779.47;;;27.96;55.04
41515;BME280;27247;48.020;16.720;2023-05-21T14:10:30;99775.88;;;27.43;54.20
41515;BME280;27247;48.020;16.720;2023-05-21T14:14:41;99779.22;;;26.52;54.76
41515;BME280;27247;48.020;16.720;2023-05-21T14:18:54;99780.75;;;25.88;57.07
41515;BME280;27247;48.020;16.720;2023-05-21T14:23:04;99768.75;;;25.69;58.49
41515;BME280;27247;48.020;16.720;2023-05-21T14:27:15;99760.25;;;25.81;55.51
41515;BME280;27247;48.020;16.720;2023-05-21T14:31:25;99761.53;;;26.14;56.58
41515;BME280;27247;48.020;16.720;2023-05-21T14:35:35;99751.69;;;25.97;56.93
41515;BME280;27247;48.020;16.720;2023-05-21T14:39:46;99745.75;;;25.70;56.86
41515;BME280;27247;48.020;16.720;2023-05-21T14:43:56;99752.03;;;25.60;57.07
41515;BME280;27247;48.020;16.720;2023-05-21T14:48:07;99754.50;;;25.82;54.58
41515;BME280;27247;48.020;16.720;2023-05-21T14:52:17;99749.38;;;26.45;56.33
41515;BME280;27247;48.020;16.720;2023-05-21T14:56:28;99741.56;;;27.12;54.93
41515;BME280;27247;48.020;16.720;2023-05-21T15:00:38;99745.88;;;27.52;55.47
41515;BME280;27247;48.020;16.720;2023-05-21T15:04:49;99743.13;;;27.52;55.14
41515;BME280;27247;48.020;16.720;2023-05-21T15:08:59;99742.41;;;27.70;53.06
41515;BME280;27247;48.020;16.720;2023-05-21T15:13:10;99742.53;;;27.55;55.40
41515;BME280;27247;48.020;16.720;2023-05-21T15:17:20;99734.56;;;27.29;54.33
41515;BME280;27247;48.020;16.720;2023-05-21T15:21:30;99740.75;;;27.40;53.47
41515;BME280;27247;48.020;16.720;2023-05-21T15:25:42;99743.25;;;27.02;55.08
41515;BME280;27247;48.020;16.720;2023-05-21T15:29:52;99749.13;;;26.86;55.95
41515;BME280;27247;48.020;16.720;2023-05-21T15:34:02;99746.69;;;26.35;57.06
41515;BME280;27247;48.020;16.720;2023-05-21T15:38:13;99744.97;;;26.44;54.12
41515;BME280;27247;48.020;16.720;2023-05-21T15:42:24;99742.94;;;25.95;57.34
41515;BME280;27247;48.020;16.720;2023-05-21T15:46:34;99743.50;;;25.97;58.15
41515;BME280;27247;48.020;16.720;2023-05-21T15:50:45;99743.81;;;25.75;58.27
41515;BME280;27247;48.020;16.720;2023-05-21T15:54:55;99752.06;;;25.50;59.25
41515;BME280;27247;48.020;16.720;2023-05-21T15:59:06;99743.03;;;25.44;58.64
41515;BME280;27247;48.020;16.720;2023-05-21T16:03:16;99750.41;;;25.64;58.78
41515;BME280;27247;48.020;16.720;2023-05-21T16:07:26;99752.91;;;25.35;58.48
41515;BME280;27247;48.020;16.720;2023-05-21T16:11:37;99747.44;;;25.20;58.77
41515;BME280;27247;48.020;16.720;2023-05-21T16:15:47;99744.16;;;24.98;59.50
41515;BME280;27247;48.020;16.720;2023-05-21T16:19:57;99753.38;;;24.92;59.43
41515;BME280;27247;48.020;16.720;2023-05-21T16:24:08;99747.06;;;24.66;62.13
41515;BME280;27247;48.020;16.720;2023-05-21T16:28:18;99750.59;;;24.61;60.61
41515;BME280;27247;48.020;16.720;2023-05-21T16:32:28;99754.91;;;24.42;62.44
41515;BME280;27247;48.020;16.720;2023-05-21T16:36:39;99747.78;;;24.31;63.31
41515;BME280;27247;48.020;16.720;2023-05-21T16:40:49;99753.25;;;24.36;61.20
41515;BME280;27247;48.020;16.720;2023-05-21T16:44:59;99754.09;;;24.41;63.66
41515;BME280;27247;48.020;16.720;2023-05-21T16:49:10;99750.81;;;24.44;63.07
41515;BME280;27247;48.020;16.720;2023-05-21T16:53:20;99753.84;;;24.53;62.16
41515;BME280;27247;48.020;16.720;2023-05-21T16:57:31;99746.41;;;24.28;62.93
41515;BME280;27247;48.020;16.720;2023-05-21T17:01:41;99743.88;;;24.16;60.13
41515;BME280;27247;48.020;16.720;2023-05-21T17:05:51;99736.75;;;24.15;61.01
41515;BME280;27247;48.020;16.720;2023-05-21T17:10:03;99742.69;;;23.97;64.17
41515;BME280;27247;48.020;16.720;2023-05-21T17:14:14;99742.63;;;23.87;64.62
41515;BME280;27247;48.020;16.720;2023-05-21T17:18:24;99741.41;;;23.68;64.08
41515;BME280;27247;48.020;16.720;2023-05-21T17:22:35;99738.13;;;23.66;64.94
41515;BME280;27247;48.020;16.720;2023-05-21T17:26:45;99733.94;;;23.53;66.03
41515;BME280;27247;48.020;16.720;2023-05-21T17:30:55;99727.03;;;23.40;65.75
41515;BME280;27247;48.020;16.720;2023-05-21T17:35:06;99735.19;;;23.40;65.50
41515;BME280;27247;48.020;16.720;2023-05-21T17:39:17;99728.94;;;23.40;66.07
41515;BME280;27247;48.020;16.720;2023-05-21T17:43:27;99735.75;;;23.42;67.08
41515;BME280;27247;48.020;16.720;2023-05-21T17:47:38;99733.59;;;23.44;67.33
41515;BME280;27247;48.020;16.720;2023-05-21T17:51:48;99727.63;;;23.47;67.03
41515;BME280;27247;48.020;16.720;2023-05-21T17:55:58;99726.56;;;23.53;66.71
41515;BME280;27247;48.020;16.720;2023-05-21T18:00:09;99732.03;;;23.53;66.29
41515;BME280;27247;48.020;16.720;2023-05-21T18:04:19;99732.81;;;23.49;67.42
41515;BME280;27247;48.020;16.720;2023-05-21T18:08:30;99739.00;;;23.39;66.67
41515;BME280;27247;48.020;16.720;2023-05-21T18:12:40;99732.16;;;23.32;66.48
41515;BME280;27247;48.020;16.720;2023-05-21T18:16:51;99733.59;;;23.07;68.78
41515;BME280;27247;48.020;16.720;2023-05-21T18:21:01;99734.59;;;22.96;69.43
41515;BME280;27247;48.020;16.720;2023-05-21T18:25:11;99731.44;;;22.82;70.76
41515;BME280;27247;48.020;16.720;2023-05-21T18:29:22;99732.66;;;22.70;71.76
41515;BME280;27247;48.020;16.720;2023-05-21T18:33:32;99741.06;;;22.68;72.72
41515;BME280;27247;48.020;16.720;2023-05-21T18:37:42;99745.34;;;22.59;74.36
41515;BME280;27247;48.020;16.720;2023-05-21T18:41:54;99748.72;;;22.44;75.79
41515;BME280;27247;48.020;16.720;2023-05-21T18:46:05;99752.59;;;22.26;77.58
41515;BME280;27247;48.020;16.720;2023-05-21T18:50:15;99751.03;;;22.09;78.33
41515;BME280;27247;48.020;16.720;2023-05-21T18:54:28;99761.75;;;21.98;78.25
41515;BME280;27247;48.020;16.720;2023-05-21T18:58:38;99756.31;;;21.82;79.25
41515;BME280;27247;48.020;16.720;2023-05-21T19:02:48;99758.72;;;21.78;79.29
41515;BME280;27247;48.020;16.720;2023-05-21T19:06:59;99770.69;;;21.60;78.58
41515;BME280;27247;48.020;16.720;2023-05-21T19:11:09;99761.50;;;21.28;80.13
41515;BME280;27247;48.020;16.720;2023-05-21T19:15:19;99764.50;;;21.15;80.45
41515;BME280;27247;48.020;16.720;2023-05-21T19:19:30;99772.47;;;20.88;81.43
41515;BME280;27247;48.020;16.720;2023-05-21T19:23:40;99783.53;;;20.98;81.99
41515;BME280;27247;48.020;16.720;2023-05-21T19:27:51;99784.94;;;20.20;83.51
41515;BME280;27247;48.020;16.720;2023-05-21T19:32:01;99795.16;;;19.78;86.79
41515;BME280;27247;48.020;16.720;2023-05-21T19:36:12;99801.59;;;19.54;89.05
41515;BME280;27247;48.020;16.720;2023-05-21T19:40:23;99797.44;;;19.39;90.91
41515;BME280;27247;48.020;16.720;2023-05-21T19:44:37;99798.63;;;19.43;91.19
41515;BME280;27247;48.020;16.720;2023-05-21T19:48:49;99801.31;;;19.32;92.12
41515;BME280;27247;48.020;16.720;2023-05-21T19:52:59;99810.03;;;19.34;92.40
41515;BME280;27247;48.020;16.720;2023-05-21T19:57:10;99802.38;;;19.31;92.85
41515;BME280;27247;48.020;16.720;2023-05-21T20:01:22;99802.75;;;19.34;92.25
41515;BME280;27247;48.020;16.720;2023-05-21T20:05:34;99806.75;;;19.43;91.42
41515;BME280;27247;48.020;16.720;2023-05-21T20:09:44;99801.81;;;19.40;90.20
41515;BME280;27247;48.020;16.720;2023-05-21T20:13:55;99813.09;;;19.26;90.26
41515;BME280;27247;48.020;16.720;2023-05-21T20:18:05;99801.91;;;19.22;89.61
41515;BME280;27247;48.020;16.720;2023-05-21T20:22:15;99806.75;;;19.32;89.33
41515;BME280;27247;48.020;16.720;2023-05-21T20:26:26;99797.19;;;19.29;88.97
41515;BME280;27247;48.020;16.720;2023-05-21T20:30:51;99797.19;;;19.29;89.66
41515;BME280;27247;48.020;16.720;2023-05-21T20:35:01;99799.44;;;19.32;88.96
41515;BME280;27247;48.020;16.720;2023-05-21T20:39:12;99792.59;;;19.30;89.27
41515;BME280;27247;48.020;16.720;2023-05-21T20:43:22;99800.03;;;19.34;90.27
41515;BME280;27247;48.020;16.720;2023-05-21T20:47:33;99787.41;;;19.28;91.13
41515;BME280;27247;48.020;16.720;2023-05-21T20:51:43;99795.84;;;19.08;92.00
41515;BME280;27247;48.020;16.720;2023-05-21T20:55:54;99792.28;;;18.96;92.67
41515;BME280;27247;48.020;16.720;2023-05-21T21:00:05;99800.75;;;18.88;92.68
41515;BME280;27247;48.020;16.720;2023-05-21T21:04:17;99803.56;;;18.81;92.13
41515;BME280;27247;48.020;16.720;2023-05-21T21:08:27;99804.69;;;18.74;91.90
41515;BME280;27247;48.020;16.720;2023-05-21T21:12:38;99811.47;;;18.65;91.87
41515;BME280;27247;48.020;16.720;2023-05-21T21:16:48;99810.25;;;18.42;92.66
41515;BME280;27247;48.020;16.720;2023-05-21T21:21:00;99811.84;;;18.13;94.20
41515;BME280;27247;48.020;16.720;2023-05-21T21:25:12;99811.78;;;18.20;94.18
41515;BME280;27247;48.020;16.720;2023-05-21T21:29:23;99806.66;;;18.12;94.97
41515;BME280;27247;48.020;16.720;2023-05-21T21:33:33;99804.72;;;18.01;96.36
41515;BME280;27247;48.020;16.720;2023-05-21T21:37:43;99805.63;;;17.95;96.74
41515;BME280;27247;48.020;16.720;2023-05-21T21:41:54;99821.00;;;17.94;97.05
41515;BME280;27247;48.020;16.720;2023-05-21T21:46:04;99813.56;;;17.90;97.11
41515;BME280;27247;48.020;16.720;2023-05-21T21:50:15;99815.56;;;17.76;97.39
41515;BME280;27247;48.020;16.720;2023-05-21T21:54:25;99811.16;;;17.81;96.74
41515;BME280;27247;48.020;16.720;2023-05-21T21:58:36;99804.19;;;17.67;97.46
41515;BME280;27247;48.020;16.720;2023-05-21T22:02:47;99795.25;;;17.67;96.48